EVY23 YSSY-YSCB
Flight info
| Callsign | EVY23 |
|---|---|
| Flight time | 0h 30m |
| Altitude | 20000 |
| Route | WOL H65 LEECE |
| Aircraft | B38M/M-SADE2E3FGHIJ1J3J4J7M3P2RWXYZ/LB1D1 |
Departure
| Time | 2026-04-26 15:46 |
|---|---|
| Airport | Sydney Kingsford Smith International Airport (YSSY) |
Arrival
| Time | 2026-04-26 16:16 |
|---|---|
| Airport | Canberra Airport (YSCB) |
| Time | Latitude | Longitude | Altitude | Speed | Heading |
|---|---|---|---|---|---|
| 2026-04-26 15:38 | -33.93521 | 151.18956 | 32 ft | 0 kts | 344° |
| 2026-04-26 15:40 | -33.93517 | 151.18955 | 32 ft | 2 kts | 342° |
| 2026-04-26 15:41 | -33.93510 | 151.18932 | 32 ft | 4 kts | 246° |
| 2026-04-26 15:41 | -33.93550 | 151.18928 | 32 ft | 9 kts | 167° |
| 2026-04-26 15:41 | -33.93604 | 151.18910 | 32 ft | 7 kts | 247° |
| 2026-04-26 15:41 | -33.93594 | 151.18851 | 32 ft | 9 kts | 276° |
| 2026-04-26 15:42 | -33.93607 | 151.18766 | 32 ft | 12 kts | 255° |
| 2026-04-26 15:42 | -33.93632 | 151.18655 | 32 ft | 15 kts | 254° |
| 2026-04-26 15:42 | -33.93665 | 151.18518 | 32 ft | 19 kts | 254° |
| 2026-04-26 15:42 | -33.93703 | 151.18355 | 33 ft | 22 kts | 254° |
| 2026-04-26 15:43 | -33.93745 | 151.18170 | 33 ft | 25 kts | 255° |
| 2026-04-26 15:43 | -33.93793 | 151.17960 | 33 ft | 27 kts | 255° |
| 2026-04-26 15:43 | -33.93708 | 151.17687 | 32 ft | 10 kts | 307° |
| 2026-04-26 15:44 | -33.93654 | 151.17626 | 32 ft | 11 kts | 303° |
| 2026-04-26 15:44 | -33.93663 | 151.17390 | 28 ft | 12 kts | 251° |
| 2026-04-26 15:44 | -33.93727 | 151.17380 | 28 ft | 10 kts | 163° |
| 2026-04-26 15:45 | -33.94343 | 151.17526 | 32 ft | 128 kts | 168° |
| 2026-04-26 15:45 | -33.95460 | 151.17818 | 367 ft | 185 kts | 168° |
| 2026-04-26 15:46 | -33.98324 | 151.17974 | 1965 ft | 232 kts | 186° |
| 2026-04-26 15:46 | -33.99990 | 151.17789 | 2701 ft | 251 kts | 185° |
| 2026-04-26 15:46 | -34.01794 | 151.17599 | 3485 ft | 267 kts | 184° |
| 2026-04-26 15:46 | -34.03018 | 151.17666 | 4223 ft | 264 kts | 168° |
| 2026-04-26 15:47 | -34.05372 | 151.18440 | 5830 ft | 264 kts | 165° |
| 2026-04-26 15:47 | -34.08997 | 151.19620 | 7721 ft | 275 kts | 164° |
| 2026-04-26 15:47 | -34.10863 | 151.20236 | 8635 ft | 281 kts | 164° |
| 2026-04-26 15:48 | -34.12769 | 151.20869 | 9547 ft | 288 kts | 164° |
| 2026-04-26 15:48 | -34.14720 | 151.21519 | 10373 ft | 297 kts | 164° |
| 2026-04-26 15:48 | -34.16778 | 151.22197 | 10937 ft | 314 kts | 166° |
| 2026-04-26 15:48 | -34.18985 | 151.22318 | 11649 ft | 324 kts | 190° |
| 2026-04-26 15:49 | -34.21074 | 151.21346 | 12592 ft | 326 kts | 213° |
| 2026-04-26 15:49 | -34.22746 | 151.19534 | 13512 ft | 330 kts | 230° |
| 2026-04-26 15:49 | -34.24276 | 151.17437 | 14421 ft | 336 kts | 229° |
| 2026-04-26 15:49 | -34.25829 | 151.15296 | 15285 ft | 341 kts | 230° |
| 2026-04-26 15:50 | -34.27393 | 151.13111 | 16143 ft | 347 kts | 230° |
| 2026-04-26 15:50 | -34.28979 | 151.10886 | 16990 ft | 352 kts | 230° |
| 2026-04-26 15:50 | -34.30588 | 151.08622 | 17840 ft | 357 kts | 230° |
| 2026-04-26 15:50 | -34.32217 | 151.06326 | 18654 ft | 363 kts | 230° |
| 2026-04-26 15:51 | -34.33871 | 151.03994 | 19368 ft | 367 kts | 230° |
| 2026-04-26 15:51 | -34.35526 | 151.01659 | 19997 ft | 373 kts | 230° |
| 2026-04-26 15:51 | -34.37244 | 150.99288 | 20163 ft | 376 kts | 225° |
| 2026-04-26 15:51 | -34.39249 | 150.97171 | 20202 ft | 390 kts | 221° |
| 2026-04-26 15:52 | -34.41307 | 150.94976 | 20209 ft | 399 kts | 222° |
| 2026-04-26 15:52 | -34.43397 | 150.92713 | 20228 ft | 404 kts | 222° |
| 2026-04-26 15:52 | -34.45492 | 150.90425 | 20248 ft | 405 kts | 222° |
| 2026-04-26 15:52 | -34.46899 | 150.88881 | 20263 ft | 405 kts | 223° |
| 2026-04-26 15:53 | -34.49665 | 150.85839 | 20264 ft | 405 kts | 223° |
| 2026-04-26 15:53 | -34.51747 | 150.83547 | 20262 ft | 405 kts | 223° |
| 2026-04-26 15:53 | -34.53835 | 150.81246 | 20265 ft | 405 kts | 223° |
| 2026-04-26 15:53 | -34.55866 | 150.78896 | 20258 ft | 404 kts | 230° |
| 2026-04-26 15:54 | -34.57549 | 150.76175 | 20264 ft | 403 kts | 234° |
| 2026-04-26 15:54 | -34.59213 | 150.73432 | 20262 ft | 403 kts | 234° |
| 2026-04-26 15:54 | -34.60871 | 150.70688 | 20272 ft | 403 kts | 234° |
| 2026-04-26 15:54 | -34.62530 | 150.67937 | 20267 ft | 403 kts | 234° |
| 2026-04-26 15:55 | -34.64189 | 150.65185 | 20269 ft | 403 kts | 234° |
| 2026-04-26 15:55 | -34.65847 | 150.62430 | 20264 ft | 404 kts | 234° |
| 2026-04-26 15:55 | -34.67500 | 150.59681 | 20269 ft | 403 kts | 234° |
| 2026-04-26 15:55 | -34.69156 | 150.56925 | 20268 ft | 403 kts | 234° |
| 2026-04-26 15:56 | -34.70806 | 150.54177 | 20272 ft | 403 kts | 234° |
| 2026-04-26 15:56 | -34.72457 | 150.51427 | 20272 ft | 403 kts | 234° |
| 2026-04-26 15:56 | -34.74104 | 150.48679 | 20276 ft | 402 kts | 234° |
| 2026-04-26 15:56 | -34.75751 | 150.45929 | 20285 ft | 403 kts | 234° |
| 2026-04-26 15:57 | -34.77399 | 150.43176 | 20275 ft | 402 kts | 234° |
| 2026-04-26 15:57 | -34.79050 | 150.40416 | 20277 ft | 402 kts | 234° |
| 2026-04-26 15:57 | -34.80695 | 150.37663 | 20278 ft | 402 kts | 234° |
| 2026-04-26 15:57 | -34.81785 | 150.35838 | 20283 ft | 403 kts | 234° |
| 2026-04-26 15:58 | -34.83987 | 150.32149 | 20277 ft | 403 kts | 234° |
| 2026-04-26 15:58 | -34.85628 | 150.29397 | 20283 ft | 403 kts | 235° |
| 2026-04-26 15:58 | -34.87275 | 150.26632 | 20297 ft | 403 kts | 235° |
| 2026-04-26 15:58 | -34.88915 | 150.23878 | 20288 ft | 402 kts | 235° |
| 2026-04-26 15:59 | -34.90560 | 150.21112 | 20299 ft | 402 kts | 235° |
| 2026-04-26 15:59 | -34.92175 | 150.18394 | 20295 ft | 402 kts | 235° |
| 2026-04-26 15:59 | -34.93817 | 150.15631 | 20299 ft | 402 kts | 235° |
| 2026-04-26 15:59 | -34.95457 | 150.12868 | 20299 ft | 402 kts | 235° |
| 2026-04-26 16:00 | -34.97093 | 150.10110 | 20306 ft | 399 kts | 235° |
| 2026-04-26 16:00 | -34.98682 | 150.07428 | 20317 ft | 382 kts | 235° |
| 2026-04-26 16:00 | -35.00205 | 150.04856 | 20337 ft | 366 kts | 235° |
| 2026-04-26 16:00 | -35.01670 | 150.02381 | 20336 ft | 354 kts | 235° |
| 2026-04-26 16:01 | -35.03138 | 149.99897 | 20288 ft | 369 kts | 235° |
| 2026-04-26 16:01 | -35.04653 | 149.97335 | 20284 ft | 376 kts | 235° |
| 2026-04-26 16:01 | -35.06349 | 149.94874 | 20291 ft | 381 kts | 226° |
| 2026-04-26 16:01 | -35.08208 | 149.92550 | 20303 ft | 383 kts | 227° |
| 2026-04-26 16:02 | -35.10042 | 149.90197 | 20313 ft | 383 kts | 227° |
| 2026-04-26 16:02 | -35.11868 | 149.87827 | 20308 ft | 383 kts | 228° |
| 2026-04-26 16:02 | -35.13688 | 149.85450 | 20304 ft | 383 kts | 228° |
| 2026-04-26 16:02 | -35.14889 | 149.83876 | 20309 ft | 383 kts | 228° |
| 2026-04-26 16:03 | -35.17315 | 149.80692 | 20233 ft | 382 kts | 228° |
| 2026-04-26 16:03 | -35.19136 | 149.78330 | 19900 ft | 381 kts | 227° |
| 2026-04-26 16:03 | -35.20947 | 149.75988 | 19475 ft | 378 kts | 227° |
| 2026-04-26 16:03 | -35.22754 | 149.73649 | 19039 ft | 376 kts | 228° |
| 2026-04-26 16:04 | -35.24546 | 149.71328 | 18609 ft | 374 kts | 228° |
| 2026-04-26 16:04 | -35.26327 | 149.69017 | 18121 ft | 372 kts | 228° |
| 2026-04-26 16:04 | -35.28095 | 149.66724 | 17673 ft | 369 kts | 228° |
| 2026-04-26 16:04 | -35.29828 | 149.64473 | 17246 ft | 366 kts | 228° |
| 2026-04-26 16:05 | -35.31585 | 149.62190 | 16819 ft | 363 kts | 228° |
| 2026-04-26 16:05 | -35.33311 | 149.59945 | 16391 ft | 360 kts | 228° |
| 2026-04-26 16:05 | -35.35023 | 149.57718 | 15948 ft | 359 kts | 228° |
| 2026-04-26 16:05 | -35.36722 | 149.55505 | 15557 ft | 355 kts | 228° |
| 2026-04-26 16:06 | -35.38390 | 149.53332 | 15163 ft | 353 kts | 228° |
| 2026-04-26 16:06 | -35.40065 | 149.51149 | 14761 ft | 350 kts | 228° |
| 2026-04-26 16:06 | -35.41730 | 149.48977 | 14353 ft | 348 kts | 228° |
| 2026-04-26 16:06 | -35.43383 | 149.46818 | 13924 ft | 346 kts | 228° |
| 2026-04-26 16:07 | -35.45039 | 149.44656 | 13588 ft | 340 kts | 228° |
| 2026-04-26 16:07 | -35.46628 | 149.42579 | 13433 ft | 329 kts | 228° |
| 2026-04-26 16:07 | -35.48126 | 149.40620 | 13278 ft | 308 kts | 228° |
| 2026-04-26 16:07 | -35.49547 | 149.38761 | 13157 ft | 289 kts | 228° |
| 2026-04-26 16:08 | -35.50875 | 149.37022 | 13025 ft | 271 kts | 228° |
| 2026-04-26 16:08 | -35.51716 | 149.35920 | 12938 ft | 260 kts | 228° |
| 2026-04-26 16:08 | -35.53253 | 149.33906 | 12772 ft | 226 kts | 229° |
| 2026-04-26 16:08 | -35.54311 | 149.32518 | 12349 ft | 220 kts | 229° |
| 2026-04-26 16:09 | -35.55050 | 149.30980 | 12176 ft | 200 kts | 257° |
| 2026-04-26 16:09 | -35.55307 | 149.29352 | 12199 ft | 194 kts | 260° |
| 2026-04-26 16:09 | -35.55556 | 149.27666 | 12236 ft | 205 kts | 261° |
| 2026-04-26 16:09 | -35.55795 | 149.25913 | 12210 ft | 211 kts | 262° |
| 2026-04-26 16:10 | -35.56023 | 149.24131 | 11959 ft | 212 kts | 262° |
| 2026-04-26 16:10 | -35.55953 | 149.22374 | 11420 ft | 204 kts | 289° |
| 2026-04-26 16:10 | -35.55170 | 149.20939 | 10658 ft | 205 kts | 319° |
| 2026-04-26 16:10 | -35.53945 | 149.20061 | 9928 ft | 204 kts | 334° |
| 2026-04-26 16:11 | -35.52596 | 149.19621 | 9192 ft | 204 kts | 355° |
| 2026-04-26 16:11 | -35.51152 | 149.19563 | 7954 ft | 217 kts | 358° |
| 2026-04-26 16:11 | -35.49519 | 149.19512 | 6583 ft | 243 kts | 358° |
| 2026-04-26 16:11 | -35.47796 | 149.19478 | 5459 ft | 248 kts | 359° |
| 2026-04-26 16:12 | -35.46166 | 149.19461 | 5077 ft | 223 kts | 360° |
| 2026-04-26 16:12 | -35.44736 | 149.19450 | 4881 ft | 195 kts | 360° |
| 2026-04-26 16:12 | -35.42282 | 149.19446 | 4305 ft | 156 kts | 359° |
| 2026-04-26 16:13 | -35.41225 | 149.19448 | 4006 ft | 150 kts | 0° |
| 2026-04-26 16:13 | -35.40192 | 149.19457 | 3625 ft | 146 kts | 359° |
| 2026-04-26 16:13 | -35.39164 | 149.19462 | 3408 ft | 149 kts | 360° |
| 2026-04-26 16:13 | -35.38137 | 149.19449 | 3193 ft | 146 kts | 358° |
| 2026-04-26 16:14 | -35.37133 | 149.19440 | 2948 ft | 143 kts | 0° |
| 2026-04-26 16:14 | -35.36133 | 149.19451 | 2761 ft | 144 kts | 359° |
| 2026-04-26 16:14 | -35.34147 | 149.19451 | 2432 ft | 139 kts | 358° |
| 2026-04-26 16:15 | -35.33185 | 149.19447 | 2240 ft | 138 kts | 359° |
| 2026-04-26 16:15 | -35.32548 | 149.19449 | 2122 ft | 138 kts | 359° |
| 2026-04-26 16:15 | -35.31586 | 149.19447 | 1952 ft | 136 kts | 359° |
| 2026-04-26 16:16 | -35.30210 | 149.19498 | 1879 ft | 15 kts | 97° |
| 2026-04-26 16:16 | -35.30239 | 149.19584 | 1882 ft | 17 kts | 116° |
| 2026-04-26 16:16 | -35.30310 | 149.19720 | 1882 ft | 20 kts | 126° |
| 2026-04-26 16:16 | -35.30366 | 149.19822 | 1882 ft | 10 kts | 99° |
| 2026-04-26 16:17 | -35.30347 | 149.19898 | 1882 ft | 8 kts | 102° |
| 2026-04-26 16:17 | -35.30369 | 149.19943 | 1879 ft | 2 kts | 126° |
| 2026-04-26 16:17 | -35.30379 | 149.19959 | 1882 ft | 0 kts | 126° |